Time;durP1;ratioP1;P1;durP2;ratioP2;P2;SDS_P1;SDS_P2;PMS_P1;PMS_P2;Temp;Humidity;BMP_temperature;BMP_pressure;BME280_temperature;BME280_humidity;BME280_pressure;Samples;Min_cycle;Max_cycle;Signal;HPM_P1;HPM_P2
2024/02/06 00:01:53;;;;;;;11.68;5.80;;;;;;;10.75;42.83;99656.56;5088827;28;20024;-72
2024/02/06 00:04:19;;;;;;;9.60;4.82;;;;;;;10.59;43.40;99659.06;5089543;28;20507;-72
2024/02/06 00:06:44;;;;;;;11.07;6.22;;;;;;;10.42;43.69;99666.31;5085973;28;20555;-72
2024/02/06 00:09:11;;;;;;;13.13;7.65;;;;;;;10.49;43.76;99660.22;5084335;28;20091;-72
2024/02/06 00:11:38;;;;;;;23.67;7.95;;;;;;;10.62;43.34;99670.41;5073579;28;20031;-73
2024/02/06 00:14:03;;;;;;;16.90;8.30;;;;;;;10.65;43.39;99668.94;5089276;28;20042;-72
2024/02/06 00:16:29;;;;;;;12.73;6.70;;;;;;;10.59;43.60;99675.84;5087050;28;20020;-72
2024/02/06 00:18:55;;;;;;;10.95;7.03;;;;;;;10.60;43.12;99674.69;5087913;28;20439;-73
2024/02/06 00:21:22;;;;;;;10.20;6.72;;;;;;;10.45;43.96;99674.03;5088550;28;20023;-72
2024/02/06 00:23:47;;;;;;;9.23;6.30;;;;;;;10.40;43.85;99674.19;5089344;28;20038;-72
2024/02/06 00:26:13;;;;;;;14.73;6.38;;;;;;;10.41;43.74;99684.25;5089012;28;20020;-72
2024/02/06 00:28:38;;;;;;;10.25;5.10;;;;;;;10.41;44.17;99692.63;5071485;28;20072;-72
2024/02/06 00:31:04;;;;;;;8.32;5.35;;;;;;;10.46;43.47;99703.63;5088556;28;20115;-72
2024/02/06 00:33:29;;;;;;;8.43;5.22;;;;;;;10.61;42.99;99695.91;5093066;28;20031;-72
2024/02/06 00:35:55;;;;;;;7.38;5.15;;;;;;;10.71;43.40;99692.78;5086494;28;20086;-72
2024/02/06 00:38:20;;;;;;;7.18;4.60;;;;;;;10.84;42.62;99707.75;5072736;28;20086;-72
2024/02/06 00:40:46;;;;;;;11.57;5.90;;;;;;;10.79;42.92;99708.72;5084486;28;20051;-72
2024/02/06 00:43:11;;;;;;;9.30;6.45;;;;;;;10.75;42.91;99707.75;5090708;28;20035;-72
2024/02/06 00:45:37;;;;;;;13.48;7.20;;;;;;;10.65;43.20;99703.31;5073280;28;20097;-72
2024/02/06 00:48:03;;;;;;;21.73;6.57;;;;;;;10.50;43.73;99704.66;5091334;28;20043;-72
2024/02/06 00:50:28;;;;;;;13.85;7.40;;;;;;;10.38;44.40;99693.25;5092698;28;20058;-68
2024/02/06 00:52:54;;;;;;;30.90;12.35;;;;;;;10.34;44.07;99698.69;5092010;28;20424;-68
2024/02/06 00:55:19;;;;;;;45.63;18.58;;;;;;;10.45;43.89;99696.41;5091209;28;20048;-68
2024/02/06 00:57:45;;;;;;;54.53;21.25;;;;;;;10.55;43.40;99708.41;5090781;28;20052;-67
2024/02/06 01:00:11;;;;;;;76.75;24.40;;;;;;;10.61;43.63;99707.09;5090513;28;20031;-68
2024/02/06 01:02:37;;;;;;;41.40;15.77;;;;;;;10.53;43.47;99708.75;5091864;28;20081;-67
2024/02/06 01:05:03;;;;;;;26.77;11.10;;;;;;;10.62;43.20;99719.94;5091107;28;20020;-67
2024/02/06 01:07:29;;;;;;;23.75;8.95;;;;;;;10.51;42.89;99714.69;5090451;28;20119;-67
2024/02/06 01:09:55;;;;;;;21.58;7.55;;;;;;;10.49;43.35;99716.97;5092150;28;20099;-68
2024/02/06 01:12:21;;;;;;;19.63;7.32;;;;;;;10.51;43.27;99720.28;5091350;28;20111;-67
2024/02/06 01:14:46;;;;;;;15.57;6.55;;;;;;;10.58;43.39;99721.75;5080997;28;20115;-68
2024/02/06 01:17:12;;;;;;;14.25;7.03;;;;;;;10.58;43.28;99716.97;5071979;28;20035;-67
2024/02/06 01:19:37;;;;;;;14.43;7.57;;;;;;;10.66;42.78;99726.53;5071956;28;20031;-68
2024/02/06 01:22:03;;;;;;;11.00;6.15;;;;;;;10.74;42.89;99722.91;5078441;28;20039;-68
2024/02/06 01:24:28;;;;;;;11.63;5.47;;;;;;;10.80;42.77;99727.16;5090724;28;20035;-69
2024/02/06 01:26:54;;;;;;;14.25;5.45;;;;;;;10.82;42.80;99727.66;5091900;28;20047;-68
2024/02/06 01:29:19;;;;;;;10.60;5.07;;;;;;;10.82;43.00;99719.25;5091211;28;20030;-68
2024/02/06 01:31:46;;;;;;;7.30;4.05;;;;;;;10.65;43.29;99730.47;5084376;28;20032;-68
2024/02/06 01:34:12;;;;;;;9.05;3.85;;;;;;;10.72;42.56;99727.19;5091950;28;20480;-68
2024/02/06 01:36:37;;;;;;;5.07;3.55;;;;;;;10.76;42.10;99731.78;5091881;28;20016;-68
2024/02/06 01:39:04;;;;;;;5.22;3.38;;;;;;;10.69;42.66;99731.44;5091892;28;20865;-68
2024/02/06 01:41:29;;;;;;;4.78;3.78;;;;;;;10.57;42.51;99734.91;5090502;28;20020;-68
2024/02/06 01:43:55;;;;;;;5.32;3.92;;;;;;;10.66;42.19;99729.31;5089795;28;20111;-68
2024/02/06 01:46:20;;;;;;;4.78;3.42;;;;;;;10.65;42.54;99728.47;5091001;28;20020;-68
2024/02/06 01:48:46;;;;;;;3.47;2.55;;;;;;;10.52;42.37;99730.31;5073363;28;20032;-67
2024/02/06 01:51:13;;;;;;;3.25;2.70;;;;;;;10.57;41.97;99734.09;5076608;28;20119;-68
2024/02/06 01:53:41;;;;;;;4.28;3.10;;;;;;;10.59;41.63;99740.16;5091294;28;20027;-68
2024/02/06 01:56:07;;;;;;;3.70;2.70;;;;;;;10.56;41.45;99740.84;5090035;28;20047;-67
2024/02/06 01:58:33;;;;;;;4.88;3.05;;;;;;;10.57;41.75;99739.69;5090205;28;20035;-67
2024/02/06 02:00:59;;;;;;;5.60;3.17;;;;;;;10.63;41.87;99741.16;5085210;28;20417;-70
2024/02/06 02:03:26;;;;;;;4.43;3.05;;;;;;;10.75;41.19;99735.75;5071051;28;20074;-70
2024/02/06 02:05:52;;;;;;;10.43;3.88;;;;;;;10.72;41.31;99735.56;5070431;28;20518;-70
2024/02/06 02:08:19;;;;;;;5.20;3.42;;;;;;;10.64;40.97;99729.63;5083554;28;20024;-69
2024/02/06 02:10:45;;;;;;;8.20;4.38;;;;;;;10.73;40.98;99735.22;5088408;28;20474;-70
2024/02/06 02:13:10;;;;;;;5.13;2.90;;;;;;;10.76;40.67;99740.19;5077679;28;20044;-70
2024/02/06 02:15:36;;;;;;;13.13;4.00;;;;;;;10.75;40.83;99737.69;5091079;28;20024;-69
2024/02/06 02:18:02;;;;;;;10.13;3.75;;;;;;;10.71;40.25;99734.72;5090259;28;20542;-69
2024/02/06 02:20:27;;;;;;;5.53;3.17;;;;;;;10.61;40.43;99735.91;5090914;28;20403;-70
2024/02/06 02:22:53;;;;;;;8.95;3.45;;;;;;;10.54;40.72;99729.97;5070581;28;20036;-70
2024/02/06 02:25:19;;;;;;;4.72;3.08;;;;;;;10.59;40.30;99734.56;5069225;28;20020;-70
2024/02/06 02:27:45;;;;;;;10.85;3.22;;;;;;;10.53;40.75;99731.94;5077959;28;20039;-69
2024/02/06 02:30:12;;;;;;;4.97;3.15;;;;;;;10.53;40.36;99729.16;5088657;28;20028;-69
2024/02/06 02:32:38;;;;;;;6.93;2.83;;;;;;;10.57;40.19;99748.06;5072926;28;20024;-69
2024/02/06 02:35:04;;;;;;;5.40;3.45;;;;;;;10.62;40.36;99742.31;5070582;28;20078;-69
2024/02/06 02:37:29;;;;;;;5.47;3.20;;;;;;;10.59;40.39;99752.19;5074305;28;20028;-70
2024/02/06 02:39:54;;;;;;;6.82;3.47;;;;;;;10.53;40.37;99751.53;5090463;28;20031;-70
2024/02/06 02:42:20;;;;;;;6.15;3.65;;;;;;;10.54;40.02;99749.53;5090166;28;20495;-69
2024/02/06 02:44:45;;;;;;;4.97;3.20;;;;;;;10.49;40.43;99752.50;5090580;28;20016;-70
2024/02/06 02:47:11;;;;;;;7.47;3.55;;;;;;;10.55;40.06;99753.16;5089664;28;21300;-70
2024/02/06 02:49:36;;;;;;;3.65;2.60;;;;;;;10.52;39.72;99755.47;5090266;28;20028;-70
2024/02/06 02:52:03;;;;;;;4.82;3.40;;;;;;;10.50;39.99;99755.00;5089002;28;20024;-70
2024/02/06 02:54:29;;;;;;;3.88;2.70;;;;;;;10.56;39.13;99758.44;5090133;28;20024;-70
2024/02/06 02:56:55;;;;;;;5.18;2.63;;;;;;;10.49;39.92;99760.91;5106361;28;20051;-70
2024/02/06 02:59:21;;;;;;;3.85;2.72;;;;;;;10.57;39.72;99764.84;5080140;28;20409;-70
2024/02/06 03:01:46;;;;;;;5.32;3.13;;;;;;;10.51;39.29;99764.19;5109925;28;20030;-70
2024/02/06 03:04:12;;;;;;;5.35;2.47;;;;;;;10.56;39.66;99766.00;5110636;28;20419;-70
2024/02/06 03:06:37;;;;;;;8.90;3.58;;;;;;;10.45;39.56;99769.13;5110403;28;20015;-70
2024/02/06 03:09:03;;;;;;;4.25;2.97;;;;;;;10.42;39.89;99766.13;5089737;28;20027;-70
2024/02/06 03:11:29;;;;;;;5.40;2.83;;;;;;;10.41;39.47;99770.94;5091652;28;20028;-72
2024/02/06 03:13:55;;;;;;;3.28;2.65;;;;;;;10.46;39.93;99779.16;5090432;28;20032;-72
2024/02/06 03:16:20;;;;;;;5.15;2.72;;;;;;;10.37;39.88;99776.31;5090018;28;20032;-72
2024/02/06 03:18:46;;;;;;;3.92;2.78;;;;;;;10.27;40.17;99792.59;5104378;28;20483;-72
2024/02/06 03:21:11;;;;;;;3.80;2.58;;;;;;;10.24;40.33;99789.25;5105772;28;20031;-72
2024/02/06 03:23:37;;;;;;;4.10;2.90;;;;;;;10.04;40.27;99785.09;5071596;28;20024;-72
2024/02/06 03:26:02;;;;;;;3.38;2.65;;;;;;;10.11;40.24;99790.22;5089033;28;20480;-72
2024/02/06 03:28:28;;;;;;;3.38;2.85;;;;;;;10.04;40.06;99793.47;5101963;28;20453;-72
2024/02/06 03:30:53;;;;;;;4.03;2.83;;;;;;;10.04;40.05;99789.88;5109258;28;20028;-72
2024/02/06 03:33:19;;;;;;;6.20;3.42;;;;;;;10.04;40.10;99785.09;5110092;28;20027;-72
2024/02/06 03:35:45;;;;;;;4.15;2.72;;;;;;;10.01;39.64;99796.94;5110241;28;20484;-73
2024/02/06 03:38:10;;;;;;;7.03;3.28;;;;;;;9.98;40.64;99792.81;5090834;28;20043;-72
2024/02/06 03:40:36;;;;;;;5.30;3.30;;;;;;;9.97;40.76;99793.94;5091880;28;20023;-72
2024/02/06 03:43:03;;;;;;;6.82;2.78;;;;;;;9.97;40.26;99785.56;5089679;28;20035;-72
2024/02/06 03:45:31;;;;;;;7.35;3.75;;;;;;;9.65;41.41;99795.13;5071607;28;20027;-72
2024/02/06 03:47:57;;;;;;;8.40;3.65;;;;;;;9.85;40.60;99793.75;5101327;28;20031;-72
2024/02/06 03:50:22;;;;;;;4.45;2.90;;;;;;;9.90;40.34;99796.41;5109880;28;20479;-72
2024/02/06 03:52:48;;;;;;;4.97;2.92;;;;;;;9.93;39.80;99794.91;5108096;28;20088;-72
2024/02/06 03:55:13;;;;;;;4.18;2.60;;;;;;;10.02;39.67;99794.97;5091540;28;20035;-72
2024/02/06 03:57:39;;;;;;;8.32;3.50;;;;;;;10.01;39.60;99801.69;5104707;28;20034;-72
2024/02/06 04:00:05;;;;;;;7.85;3.95;;;;;;;10.01;39.98;99790.50;5103863;28;20024;-72
2024/02/06 04:02:31;;;;;;;5.72;3.22;;;;;;;10.17;39.81;99783.34;5109142;28;20518;-72
2024/02/06 04:04:57;;;;;;;5.78;2.63;;;;;;;10.19;39.42;99796.97;5091682;28;20106;-72
2024/02/06 04:07:22;;;;;;;6.93;3.28;;;;;;;10.19;39.57;99808.16;5112572;28;20507;-72
2024/02/06 04:09:49;;;;;;;9.52;3.63;;;;;;;10.08;39.31;99799.25;5090844;28;20024;-72
2024/02/06 04:12:15;;;;;;;6.55;4.03;;;;;;;10.07;39.44;99806.81;5084650;28;20058;-72
2024/02/06 04:14:40;;;;;;;3.65;2.72;;;;;;;10.12;39.88;99797.44;5095357;28;20027;-72
2024/02/06 04:17:06;;;;;;;5.60;3.92;;;;;;;10.15;39.72;99801.56;5094433;28;20031;-72
2024/02/06 04:19:32;;;;;;;3.35;2.60;;;;;;;10.07;39.27;99800.41;5113503;28;20513;-72
2024/02/06 04:21:57;;;;;;;5.95;3.33;;;;;;;10.18;39.24;99807.34;5091311;28;20036;-70
2024/02/06 04:24:23;;;;;;;5.93;3.13;;;;;;;10.03;39.58;99802.22;5074805;28;20042;-70
2024/02/06 04:26:48;;;;;;;7.95;4.28;;;;;;;9.98;40.00;99803.19;5095073;28;20507;-70
2024/02/06 04:29:14;;;;;;;7.03;4.38;;;;;;;10.03;39.95;99800.22;5112867;28;20483;-70
2024/02/06 04:31:40;;;;;;;12.13;4.50;;;;;;;10.08;39.57;99804.84;5109045;28;20028;-70
2024/02/06 04:34:06;;;;;;;5.60;3.25;;;;;;;10.03;39.74;99799.41;5092973;28;20492;-69
2024/02/06 04:36:32;;;;;;;7.70;3.17;;;;;;;9.93;40.22;99811.69;5093182;28;20066;-70
2024/02/06 04:38:57;;;;;;;17.17;5.53;;;;;;;10.04;40.17;99806.66;5097296;28;20027;-70
2024/02/06 04:41:22;;;;;;;15.82;5.63;;;;;;;10.18;40.04;99810.16;5096433;28;20020;-69
2024/02/06 04:43:48;;;;;;;14.85;6.35;;;;;;;10.20;39.51;99805.06;5094938;28;20027;-70
2024/02/06 04:46:14;;;;;;;14.35;6.35;;;;;;;10.26;39.70;99805.72;5094850;28;20496;-69
2024/02/06 04:48:39;;;;;;;8.52;5.32;;;;;;;10.23;39.91;99811.97;5112222;28;20027;-70
2024/02/06 04:51:04;;;;;;;13.13;5.38;;;;;;;10.06;40.16;99815.53;5113103;28;20031;-70
2024/02/06 04:53:31;;;;;;;8.70;4.47;;;;;;;10.12;40.24;99817.00;5094158;28;20030;-70
2024/02/06 04:55:57;;;;;;;5.97;3.40;;;;;;;9.94;40.33;99814.16;5111211;28;20089;-70
2024/02/06 04:58:22;;;;;;;6.63;3.08;;;;;;;9.89;40.52;99817.09;5093417;28;20165;-69
2024/02/06 05:00:48;;;;;;;7.95;4.30;;;;;;;9.79;40.72;99814.59;5112900;28;20027;-70
2024/02/06 05:03:13;;;;;;;6.38;3.10;;;;;;;9.77;40.57;99814.06;5093702;28;20062;-70
2024/02/06 05:05:39;;;;;;;11.73;4.60;;;;;;;9.81;41.11;99823.47;5112474;28;20028;-69
2024/02/06 05:08:04;;;;;;;10.10;3.67;;;;;;;9.77;40.74;99814.06;5084329;28;20020;-70
2024/02/06 05:10:30;;;;;;;9.32;6.05;;;;;;;9.73;41.15;99822.28;5111291;28;20464;-69
2024/02/06 05:12:55;;;;;;;9.75;6.63;;;;;;;9.67;41.07;99818.81;5094325;28;20035;-69
2024/02/06 05:15:21;;;;;;;13.35;7.05;;;;;;;9.67;41.08;99818.81;5082110;28;20031;-69
2024/02/06 05:17:46;;;;;;;13.88;5.75;;;;;;;9.57;41.74;99830.25;5092106;28;20070;-69
2024/02/06 05:20:12;;;;;;;14.02;5.10;;;;;;;9.61;41.24;99822.06;5111049;28;20099;-69
2024/02/06 05:22:38;;;;;;;18.77;10.70;;;;;;;9.54;41.72;99830.91;5093848;28;20032;-69
2024/02/06 05:25:09;;;;;;;5.78;4.35;;;;;;;9.43;41.95;99827.53;5091702;28;20040;-69
2024/02/06 05:27:35;;;;;;;4.65;3.50;;;;;;;9.36;42.82;99825.19;5102299;28;20102;-70
2024/02/06 05:30:04;;;;;;;9.38;4.65;;;;;;;9.29;43.15;99824.84;5110661;28;20107;-70
2024/02/06 05:32:31;;;;;;;11.55;3.50;;;;;;;9.17;42.78;99830.97;5112339;28;20442;-72
2024/02/06 05:34:59;;;;;;;6.30;3.63;;;;;;;9.07;43.69;99832.06;5112553;28;20028;-72
2024/02/06 05:37:25;;;;;;;7.20;4.40;;;;;;;9.11;42.81;99833.06;5108937;28;20150;-72
2024/02/06 05:39:50;;;;;;;8.48;3.50;;;;;;;9.17;42.79;99839.34;5089369;28;20507;-72
2024/02/06 05:42:15;;;;;;;6.68;3.72;;;;;;;9.08;42.91;99839.28;5073607;28;20527;-72
2024/02/06 05:44:41;;;;;;;7.43;4.40;;;;;;;9.08;43.54;99844.03;5087866;28;20509;-72
2024/02/06 05:47:07;;;;;;;58.72;26.13;;;;;;;8.98;43.76;99839.53;5110856;28;20551;-72
2024/02/06 05:49:33;;;;;;;42.10;22.27;;;;;;;8.94;44.53;99846.88;5109968;28;20023;-72
2024/02/06 05:51:58;;;;;;;71.55;22.95;;;;;;;8.83;44.41;99844.31;5110390;28;20027;-71
2024/02/06 05:54:25;;;;;;;70.43;26.75;;;;;;;8.61;45.09;99841.47;5108906;28;20031;-72
2024/02/06 05:56:50;;;;;;;73.50;29.38;;;;;;;8.66;44.67;99838.56;5109474;28;20039;-72
2024/02/06 05:59:15;;;;;;;64.65;35.33;;;;;;;8.76;44.58;99843.09;5091022;28;20107;-71
2024/02/06 06:01:41;;;;;;;92.95;37.70;;;;;;;8.73;44.44;99847.34;5106867;28;20028;-71
2024/02/06 06:04:06;;;;;;;106.32;47.28;;;;;;;8.38;45.08;99844.16;5109366;28;20107;-70
2024/02/06 06:06:32;;;;;;;138.38;57.60;;;;;;;8.52;44.47;99850.56;5111111;28;20044;-71
2024/02/06 06:08:59;;;;;;;135.50;56.58;;;;;;;8.64;44.58;99846.44;5104598;28;20043;-70
2024/02/06 06:11:24;;;;;;;110.97;44.80;;;;;;;8.68;44.66;99847.44;5109735;28;20019;-70
2024/02/06 06:13:50;;;;;;;98.20;35.78;;;;;;;8.70;43.86;99851.56;5085225;28;20035;-71
2024/02/06 06:16:15;;;;;;;90.45;36.67;;;;;;;8.89;43.98;99853.41;5094899;28;20036;-71
2024/02/06 06:18:41;;;;;;;77.60;34.17;;;;;;;9.21;43.85;99856.28;5096284;28;20028;-70
2024/02/06 06:21:06;;;;;;;80.40;27.50;;;;;;;9.32;42.66;99854.06;5072635;28;20474;-71
2024/02/06 06:23:32;;;;;;;103.93;36.47;;;;;;;9.46;42.68;99856.78;5090873;28;20508;-70
2024/02/06 06:25:57;;;;;;;83.90;33.25;;;;;;;9.55;43.33;99863.28;5089631;28;20043;-71
2024/02/06 06:28:23;;;;;;;78.45;27.90;;;;;;;9.73;42.55;99863.38;5102064;28;20032;-72
2024/02/06 06:30:49;;;;;;;32.42;13.05;;;;;;;9.85;41.14;99858.00;5110920;28;20031;-71
2024/02/06 06:33:14;;;;;;;33.40;15.65;;;;;;;10.15;40.87;99858.31;5093015;28;20031;-71
2024/02/06 06:35:40;;;;;;;100.22;44.70;;;;;;;10.36;40.25;99852.97;5111078;28;20023;-71
2024/02/06 06:38:05;;;;;;;263.70;129.88;;;;;;;10.44;39.53;99853.31;5092319;28;20392;-72
2024/02/06 06:40:31;;;;;;;90.38;45.20;;;;;;;10.56;39.31;99842.34;5108635;28;20023;-69
2024/02/06 06:42:56;;;;;;;46.30;28.60;;;;;;;10.81;39.02;99846.31;5078575;28;20093;-69
2024/02/06 06:45:21;;;;;;;26.98;14.50;;;;;;;10.89;38.41;99850.28;5097052;28;20027;-68
2024/02/06 06:47:47;;;;;;;33.40;13.02;;;;;;;10.97;38.48;99853.44;5097460;28;20020;-69
2024/02/06 06:50:12;;;;;;;25.98;11.50;;;;;;;11.06;38.17;99854.25;5090428;28;20510;-69
2024/02/06 06:52:42;;;;;;;30.20;10.85;;;;;;;11.26;38.09;99861.16;5106428;28;20039;-68
2024/02/06 06:55:08;;;;;;;31.55;16.83;;;;;;;11.44;37.54;99855.53;5088949;28;20053;-69
2024/02/06 06:57:35;;;;;;;41.25;12.48;;;;;;;11.61;36.75;99851.88;5098787;28;20024;-71
2024/02/06 07:00:02;;;;;;;28.55;11.13;;;;;;;11.65;36.28;99847.28;5094106;28;20154;-72
2024/02/06 07:02:28;;;;;;;34.63;18.95;;;;;;;11.88;35.67;99855.44;5105399;28;20522;-70
2024/02/06 07:04:55;;;;;;;50.90;18.30;;;;;;;12.12;35.87;99866.13;5107112;28;20039;-69
2024/02/06 07:07:20;;;;;;;34.63;13.57;;;;;;;12.26;35.68;99854.69;5089871;28;20031;-69
2024/02/06 07:09:46;;;;;;;38.05;13.98;;;;;;;12.45;35.53;99847.81;5103556;28;20068;-69
2024/02/06 07:12:11;;;;;;;27.75;11.25;;;;;;;12.59;35.82;99856.00;5088526;28;20031;-70
2024/02/06 07:14:37;;;;;;;31.75;11.85;;;;;;;12.70;35.33;99848.00;5090330;28;20515;-69
2024/02/06 07:17:03;;;;;;;27.17;11.90;;;;;;;12.85;35.24;99846.59;5104397;28;20027;-69
2024/02/06 07:19:29;;;;;;;31.83;11.98;;;;;;;12.92;35.22;99841.25;5091275;28;20032;-70
2024/02/06 07:21:57;;;;;;;48.53;19.08;;;;;;;13.14;35.42;99840.06;5089776;28;20084;-69
2024/02/06 07:24:27;;;;;;;64.47;24.15;;;;;;;13.27;34.67;99843.78;5100870;28;20030;-70
2024/02/06 07:26:53;;;;;;;84.80;30.77;;;;;;;13.25;34.73;99840.47;5090055;28;20084;-70
2024/02/06 07:29:19;;;;;;;87.18;32.85;;;;;;;13.48;34.72;99845.75;5109418;28;20480;-72
2024/02/06 07:31:45;;;;;;;39.97;18.33;;;;;;;13.67;34.65;99838.78;5107832;28;20066;-70
2024/02/06 07:34:10;;;;;;;56.88;19.85;;;;;;;13.78;34.15;99834.38;5109705;28;20038;-72
2024/02/06 07:36:36;;;;;;;45.53;22.65;;;;;;;13.90;33.10;99827.94;5109562;28;20092;-72
2024/02/06 07:39:01;;;;;;;27.38;12.68;;;;;;;14.12;33.44;99831.47;5089277;28;20092;-71
2024/02/06 07:41:27;;;;;;;92.25;47.42;;;;;;;14.22;32.92;99821.75;5110577;28;20035;-70
2024/02/06 07:43:52;;;;;;;31.73;13.65;;;;;;;14.32;32.57;99819.31;5110329;28;20076;-70
2024/02/06 07:46:18;;;;;;;15.80;9.50;;;;;;;14.50;32.28;99810.59;5109689;28;20120;-69
2024/02/06 07:48:44;;;;;;;12.88;7.22;;;;;;;14.74;32.14;99815.41;5103103;28;20070;-69
2024/02/06 07:51:11;;;;;;;10.85;6.13;;;;;;;14.85;30.57;99812.13;5075125;28;20080;-68
2024/02/06 07:53:36;;;;;;;12.48;5.45;;;;;;;14.83;29.87;99803.19;5106978;28;20454;-68
2024/02/06 07:56:04;;;;;;;16.35;7.57;;;;;;;14.96;30.77;99807.63;5112463;28;20051;-68
2024/02/06 07:58:30;;;;;;;15.15;6.75;;;;;;;15.22;30.41;99800.72;5113462;28;20026;-68
2024/02/06 08:00:56;;;;;;;13.52;7.22;;;;;;;15.46;30.10;99796.16;5111628;28;20015;-68
2024/02/06 08:03:21;;;;;;;24.42;8.10;;;;;;;15.51;29.74;99798.69;5110905;28;20107;-68
2024/02/06 08:05:47;;;;;;;15.27;7.18;;;;;;;15.64;30.39;99796.63;5112219;28;20028;-68
2024/02/06 08:08:12;;;;;;;11.50;4.72;;;;;;;15.70;29.89;99811.28;5089647;28;20028;-68
2024/02/06 08:10:38;;;;;;;16.00;4.60;;;;;;;15.72;29.77;99803.28;5100873;28;20039;-68
2024/02/06 08:13:03;;;;;;;17.70;7.03;;;;;;;15.70;29.11;99802.81;5108773;28;20019;-70
2024/02/06 08:15:29;;;;;;;17.08;5.80;;;;;;;15.88;29.14;99789.19;5088631;28;20538;-70
2024/02/06 08:17:54;;;;;;;12.68;5.10;;;;;;;16.06;28.80;99786.84;5108029;28;20040;-70
2024/02/06 08:20:21;;;;;;;12.48;4.82;;;;;;;15.99;29.01;99795.97;5107853;28;20024;-69
2024/02/06 08:22:49;;;;;;;12.07;5.88;;;;;;;16.23;29.11;99793.31;5112248;28;20031;-70
2024/02/06 08:25:17;;;;;;;16.88;7.43;;;;;;;15.91;29.20;99804.59;5109456;28;20039;-69
2024/02/06 08:27:43;;;;;;;22.88;8.57;;;;;;;16.28;28.96;99790.19;5073916;28;20160;-68
2024/02/06 08:30:09;;;;;;;21.52;7.85;;;;;;;16.54;28.62;99788.78;5086349;28;20028;-69
2024/02/06 08:32:35;;;;;;;18.85;8.32;;;;;;;16.78;28.20;99796.19;5111066;28;20050;-68
2024/02/06 08:35:01;;;;;;;22.95;9.50;;;;;;;16.32;29.35;99788.28;5108647;28;20993;-68
2024/02/06 08:37:26;;;;;;;20.20;7.35;;;;;;;15.92;29.59;99781.66;5107433;28;20028;-67
2024/02/06 08:39:52;;;;;;;20.85;8.45;;;;;;;15.82;30.36;99773.72;5099702;28;20510;-69
2024/02/06 08:42:17;;;;;;;14.63;6.50;;;;;;;15.94;31.13;99776.47;5104541;28;20024;-68
2024/02/06 08:44:43;;;;;;;9.25;4.00;;;;;;;15.75;30.01;99780.00;5088560;28;20036;-67
2024/02/06 08:47:09;;;;;;;8.88;2.92;;;;;;;15.85;30.29;99781.44;5106990;28;20034;-68
2024/02/06 08:49:34;;;;;;;11.60;4.70;;;;;;;15.94;31.81;99779.28;5105253;28;20046;-69
2024/02/06 08:52:00;;;;;;;13.35;3.92;;;;;;;15.93;31.39;99790.97;5106033;28;20063;-71
2024/02/06 08:54:25;;;;;;;6.28;3.72;;;;;;;16.16;31.61;99795.94;5087380;28;20031;-71
2024/02/06 08:56:51;;;;;;;15.25;3.63;;;;;;;16.39;30.77;99791.25;5103153;28;20499;-68
2024/02/06 08:59:17;;;;;;;20.55;6.10;;;;;;;16.52;30.87;99794.81;5089454;28;20430;-66
2024/02/06 09:01:43;;;;;;;17.58;5.15;;;;;;;16.43;30.93;99791.34;5110565;28;20076;-68
2024/02/06 09:04:09;;;;;;;16.88;5.97;;;;;;;16.56;30.67;99792.88;5093880;28;20042;-69
2024/02/06 09:06:35;;;;;;;19.63;4.80;;;;;;;16.72;29.94;99796.84;5106864;28;20415;-70
2024/02/06 09:09:03;;;;;;;15.23;4.18;;;;;;;16.62;29.63;99789.78;5107919;28;20453;-69
2024/02/06 09:11:29;;;;;;;25.88;5.88;;;;;;;16.85;30.15;99792.69;5111140;28;20092;-70
2024/02/06 09:13:55;;;;;;;28.00;7.28;;;;;;;16.98;29.66;99788.53;5111270;28;20050;-70
2024/02/06 09:16:22;;;;;;;26.65;7.65;;;;;;;17.38;29.11;99782.94;5111219;28;20063;-71
2024/02/06 09:18:52;;;;;;;18.63;7.32;;;;;;;17.64;28.88;99776.53;5085768;28;20031;-71
2024/02/06 09:21:18;;;;;;;26.35;7.40;;;;;;;17.52;28.84;99782.34;5088951;28;20023;-71
2024/02/06 09:23:44;;;;;;;20.88;8.65;;;;;;;17.20;29.10;99783.38;5088457;28;20051;-72
2024/02/06 09:26:10;;;;;;;29.05;8.00;;;;;;;17.43;29.27;99785.44;5108633;28;20055;-68
2024/02/06 09:28:36;;;;;;;23.40;7.45;;;;;;;17.87;28.57;99784.22;5109220;28;20553;-70
2024/02/06 09:31:05;;;;;;;23.00;6.93;;;;;;;18.27;28.79;99775.56;5107881;28;20032;-70
2024/02/06 09:33:31;;;;;;;25.17;7.97;;;;;;;18.66;28.05;99781.03;5106411;28;20114;-70
2024/02/06 09:35:56;;;;;;;25.40;8.57;;;;;;;18.97;26.97;99772.53;5101120;28;20023;-70
2024/02/06 09:38:22;;;;;;;15.07;7.25;;;;;;;18.85;25.80;99776.41;5108504;28;20500;-72
2024/02/06 09:40:47;;;;;;;20.58;7.95;;;;;;;19.25;26.67;99768.44;5090660;28;20504;-70
2024/02/06 09:43:16;;;;;;;14.30;6.40;;;;;;;19.56;25.57;99766.38;5080329;28;20027;-71
2024/02/06 09:45:46;;;;;;;10.63;3.63;;;;;;;19.59;23.55;99757.06;5086289;28;20020;-70
2024/02/06 09:48:12;;;;;;;13.37;6.67;;;;;;;19.77;23.10;99752.34;5085302;28;20019;-71
2024/02/06 09:50:39;;;;;;;12.55;4.28;;;;;;;19.86;22.92;99749.22;5089667;28;20028;-71
2024/02/06 09:53:08;;;;;;;10.00;5.13;;;;;;;20.06;22.90;99741.31;5097022;28;20034;-72
2024/02/06 09:55:35;;;;;;;8.00;4.03;;;;;;;19.76;22.62;99744.25;5078889;28;20105;-71
2024/02/06 09:58:03;;;;;;;6.15;3.45;;;;;;;20.14;22.04;99738.50;5103537;28;20066;-71
2024/02/06 10:00:29;;;;;;;7.70;3.05;;;;;;;20.28;21.77;99732.13;5110117;28;20035;-71
2024/02/06 10:02:58;;;;;;;10.80;2.53;;;;;;;20.41;21.51;99732.63;5108182;28;20042;-71
2024/02/06 10:05:31;;;;;;;9.18;3.83;;;;;;;20.58;21.29;99720.53;5105047;28;20033;-71
2024/02/06 10:07:57;;;;;;;6.85;2.58;;;;;;;20.64;21.22;99720.16;5108047;28;20027;-72
2024/02/06 10:10:23;;;;;;;14.57;5.95;;;;;;;20.75;21.02;99709.63;5105539;28;20403;-70
2024/02/06 10:12:49;;;;;;;7.32;3.90;;;;;;;20.39;21.82;99706.59;5077474;28;20028;-70
2024/02/06 10:15:20;;;;;;;14.25;3.05;;;;;;;20.11;21.71;99696.72;5088637;28;20127;-70
2024/02/06 10:17:45;;;;;;;9.88;3.95;;;;;;;20.17;22.63;99684.59;5107110;28;20495;-69
2024/02/06 10:20:11;;;;;;;6.97;3.28;;;;;;;20.00;21.92;99685.28;5110696;28;20100;-69
2024/02/06 10:22:38;;;;;;;13.13;2.60;;;;;;;19.93;21.92;99674.69;5088977;28;20031;-70
2024/02/06 10:25:04;;;;;;;4.13;1.80;;;;;;;20.26;22.09;99669.22;5106017;28;20027;-70
2024/02/06 10:27:31;;;;;;;4.10;2.28;;;;;;;20.03;21.91;99665.44;5105130;28;20042;-68
2024/02/06 10:30:01;;;;;;;6.63;3.05;;;;;;;19.83;21.79;99662.00;5104004;28;20028;-70
2024/02/06 10:32:44;;;;;;;3.88;1.67;;;;;;;19.86;20.93;99649.06;5106313;28;20107;-71
2024/02/06 10:35:10;;;;;;;5.68;2.17;;;;;;;19.90;21.35;99653.56;5099110;28;20020;-73
2024/02/06 10:37:37;;;;;;;7.20;2.22;;;;;;;20.29;22.08;99649.38;5084675;28;20831;-71
2024/02/06 10:40:07;;;;;;;5.22;1.80;;;;;;;20.30;21.71;99633.97;5102700;28;20880;-72
2024/02/06 10:42:33;;;;;;;3.10;2.20;;;;;;;20.13;21.58;99638.31;5074272;28;20179;-71
2024/02/06 10:44:59;;;;;;;6.07;1.85;;;;;;;20.01;20.75;99627.31;5104735;28;20039;-71
2024/02/06 10:47:25;;;;;;;5.55;2.38;;;;;;;20.09;21.42;99631.00;5079265;28;20042;-71
2024/02/06 10:50:04;;;;;;;4.03;1.90;;;;;;;19.95;20.68;99626.84;5105567;28;20116;-72
2024/02/06 10:52:30;;;;;;;3.42;1.75;;;;;;;20.13;20.85;99614.78;5107685;28;20023;-71
2024/02/06 10:54:56;;;;;;;4.25;1.63;;;;;;;20.28;20.69;99615.69;5104843;28;20441;-72
2024/02/06 10:57:25;;;;;;;8.32;2.10;;;;;;;20.32;21.24;99614.50;5099605;28;20046;-72
2024/02/06 11:00:12;;;;;;;7.20;2.47;;;;;;;20.43;20.91;99610.88;5103210;28;20164;-71
2024/02/06 11:02:43;;;;;;;4.32;1.92;;;;;;;20.77;20.69;99602.88;5087866;28;20043;-74
2024/02/06 11:05:40;;;;;;;5.78;2.78;;;;;;;20.85;21.11;99598.06;5104890;28;20156;-71
2024/02/06 11:08:27;;;;;;;5.30;2.55;;;;;;;21.03;20.29;99597.28;5103130;28;20023;-73
2024/02/06 11:11:01;;;;;;;2.67;2.15;;;;;;;21.20;20.56;99584.31;5101335;28;20031;-73
2024/02/06 11:13:31;;;;;;;5.32;1.90;;;;;;;21.24;20.36;99567.25;5100923;28;20024;-72
2024/02/06 11:16:03;;;;;;;11.63;2.33;;;;;;;21.22;20.32;99569.66;5086613;28;20038;-73
2024/02/06 11:18:49;;;;;;;5.10;2.08;;;;;;;21.53;20.47;99556.66;5080328;28;20039;-72
2024/02/06 11:21:20;;;;;;;5.70;3.00;;;;;;;21.65;20.28;99551.75;5079646;28;20047;-71
2024/02/06 11:23:46;;;;;;;;;;;;;;;21.96;20.11;99552.97;5092566;28;20028;-69
2024/02/06 11:26:13;;;;;;;3.08;1.50;;;;;;;22.12;19.82;99545.97;5102735;28;19915;-73